EZY2748 LGKO-EGLC
Flight info
| Callsign | EZY2748 |
|---|---|
| Flight time | 1h 29m |
| Altitude | 36000 |
| Route | LARKI UL609 MES UG18 FSK UL608 DISOR DCT LONTA/N0449F380 UL608 DOLEV DCT BOSNA DCT OKSIG DCT GORPA DCT DOL DCT UMVEG DCT IRBIR DCT UTABA DCT EDISA DCT KOMOB DCT KOK/N0337F180 L607 KONAN |
| Aircraft | A20N/M-SDE2E3FGHIRWXY/LB1 |
Departure
| Time | 2026-05-05 12:58 |
|---|---|
| Airport | Kos International Airport "Ippokratis" (LGKO) |
Arrival
| Time | 2026-05-05 14:28 |
|---|---|
| Airport | London City Airport (EGLC) |
| Time | Latitude | Longitude | Altitude | Speed | Heading |
|---|---|---|---|---|---|
| 2026-05-05 12:47 | 36.80107 | 27.08940 | 448 ft | 0 kts | 57° |
| 2026-05-05 12:51 | 36.80103 | 27.08933 | 448 ft | 3 kts | 57° |
| 2026-05-05 12:51 | 36.80093 | 27.08913 | 448 ft | 3 kts | 57° |
| 2026-05-05 12:52 | 36.80083 | 27.08893 | 448 ft | 3 kts | 57° |
| 2026-05-05 12:52 | 36.80077 | 27.08871 | 447 ft | 3 kts | 97° |
| 2026-05-05 12:52 | 36.80080 | 27.08855 | 447 ft | 0 kts | 124° |
| 2026-05-05 12:54 | 36.80065 | 27.08879 | 447 ft | 1 kts | 134° |
| 2026-05-05 12:54 | 36.80040 | 27.08903 | 448 ft | 9 kts | 147° |
| 2026-05-05 12:54 | 36.79980 | 27.08950 | 448 ft | 12 kts | 149° |
| 2026-05-05 12:55 | 36.79899 | 27.09004 | 447 ft | 11 kts | 160° |
| 2026-05-05 12:55 | 36.79810 | 27.08990 | 437 ft | 19 kts | 187° |
| 2026-05-05 12:55 | 36.79637 | 27.09007 | 430 ft | 31 kts | 165° |
| 2026-05-05 12:55 | 36.79431 | 27.09138 | 444 ft | 33 kts | 148° |
| 2026-05-05 12:56 | 36.79240 | 27.09286 | 435 ft | 32 kts | 148° |
| 2026-05-05 12:56 | 36.79057 | 27.09429 | 433 ft | 30 kts | 148° |
| 2026-05-05 12:56 | 36.78885 | 27.09562 | 440 ft | 28 kts | 148° |
| 2026-05-05 12:56 | 36.78733 | 27.09699 | 446 ft | 26 kts | 146° |
| 2026-05-05 12:57 | 36.78603 | 27.09825 | 446 ft | 19 kts | 131° |
| 2026-05-05 12:57 | 36.78556 | 27.09820 | 441 ft | 1 kts | 291° |
| 2026-05-05 12:57 | 36.78572 | 27.09804 | 446 ft | 4 kts | 327° |
| 2026-05-05 12:57 | 36.78592 | 27.09789 | 447 ft | 5 kts | 328° |
| 2026-05-05 12:58 | 36.78790 | 27.09636 | 437 ft | 67 kts | 329° |
| 2026-05-05 12:58 | 36.79397 | 27.09163 | 438 ft | 138 kts | 328° |
| 2026-05-05 12:58 | 36.80254 | 27.08469 | 945 ft | 148 kts | 327° |
| 2026-05-05 12:58 | 36.81109 | 27.07756 | 1694 ft | 148 kts | 326° |
| 2026-05-05 12:59 | 36.81944 | 27.07004 | 2447 ft | 148 kts | 319° |
| 2026-05-05 12:59 | 36.82625 | 27.06025 | 3122 ft | 151 kts | 306° |
| 2026-05-05 12:59 | 36.83118 | 27.04870 | 3875 ft | 151 kts | 304° |
| 2026-05-05 13:00 | 36.83937 | 27.03081 | 4807 ft | 145 kts | 313° |
| 2026-05-05 13:00 | 36.84526 | 27.02088 | 5367 ft | 138 kts | 316° |
| 2026-05-05 13:01 | 36.86502 | 26.99066 | 6465 ft | 162 kts | 316° |
| 2026-05-05 13:01 | 36.87202 | 26.97941 | 6845 ft | 166 kts | 313° |
| 2026-05-05 13:01 | 36.87851 | 26.96711 | 7172 ft | 175 kts | 309° |
| 2026-05-05 13:01 | 36.88525 | 26.95396 | 7350 ft | 189 kts | 309° |
| 2026-05-05 13:02 | 36.89285 | 26.93980 | 7520 ft | 203 kts | 310° |
| 2026-05-05 13:02 | 36.90126 | 26.92501 | 7698 ft | 213 kts | 315° |
| 2026-05-05 13:02 | 36.91176 | 26.91094 | 7778 ft | 231 kts | 318° |
| 2026-05-05 13:02 | 36.92352 | 26.89635 | 7949 ft | 245 kts | 320° |
| 2026-05-05 13:03 | 36.93622 | 26.88133 | 8191 ft | 256 kts | 320° |
| 2026-05-05 13:03 | 36.94944 | 26.86605 | 8556 ft | 261 kts | 320° |
| 2026-05-05 13:03 | 36.98148 | 26.82937 | 9544 ft | 268 kts | 320° |
| 2026-05-05 13:03 | 37.03753 | 26.76484 | 10778 ft | 289 kts | 320° |
| 2026-05-05 13:04 | 37.09794 | 26.69488 | 12061 ft | 301 kts | 319° |
| 2026-05-05 13:04 | 37.16016 | 26.62271 | 13357 ft | 308 kts | 319° |
| 2026-05-05 13:04 | 37.22371 | 26.54882 | 14527 ft | 313 kts | 319° |
| 2026-05-05 13:04 | 37.28779 | 26.47414 | 15587 ft | 316 kts | 318° |
| 2026-05-05 13:05 | 37.35240 | 26.39867 | 16553 ft | 319 kts | 317° |
| 2026-05-05 13:05 | 37.41776 | 26.32212 | 17405 ft | 322 kts | 317° |
| 2026-05-05 13:05 | 37.48354 | 26.24489 | 18145 ft | 326 kts | 317° |
| 2026-05-05 13:05 | 37.55013 | 26.16651 | 18739 ft | 329 kts | 317° |
| 2026-05-05 13:06 | 37.61729 | 26.08726 | 19295 ft | 332 kts | 317° |
| 2026-05-05 13:06 | 37.68511 | 26.00703 | 19781 ft | 334 kts | 317° |
| 2026-05-05 13:06 | 37.75311 | 25.92636 | 20187 ft | 337 kts | 317° |
| 2026-05-05 13:06 | 37.82075 | 25.84590 | 20578 ft | 339 kts | 317° |
| 2026-05-05 13:07 | 37.88942 | 25.76402 | 20936 ft | 340 kts | 317° |
| 2026-05-05 13:07 | 37.95854 | 25.68135 | 21269 ft | 342 kts | 317° |
| 2026-05-05 13:07 | 38.02790 | 25.59820 | 21577 ft | 343 kts | 317° |
| 2026-05-05 13:07 | 38.09725 | 25.51480 | 21841 ft | 344 kts | 317° |
| 2026-05-05 13:08 | 38.16672 | 25.43105 | 22057 ft | 345 kts | 317° |
| 2026-05-05 13:08 | 38.23629 | 25.34693 | 22266 ft | 345 kts | 317° |
| 2026-05-05 13:08 | 38.30583 | 25.26263 | 22403 ft | 346 kts | 317° |
| 2026-05-05 13:08 | 38.37556 | 25.17786 | 22532 ft | 347 kts | 317° |
| 2026-05-05 13:09 | 38.44552 | 25.09256 | 22631 ft | 348 kts | 318° |
| 2026-05-05 13:09 | 38.51536 | 25.00717 | 22722 ft | 348 kts | 318° |
| 2026-05-05 13:09 | 38.58543 | 24.92126 | 22810 ft | 348 kts | 318° |
| 2026-05-05 13:09 | 38.65527 | 24.83538 | 22869 ft | 348 kts | 318° |
| 2026-05-05 13:10 | 38.72429 | 24.75028 | 22932 ft | 349 kts | 318° |
| 2026-05-05 13:10 | 38.79387 | 24.66424 | 23009 ft | 349 kts | 318° |
| 2026-05-05 13:10 | 38.86379 | 24.57752 | 23134 ft | 349 kts | 318° |
| 2026-05-05 13:10 | 38.93332 | 24.49108 | 23191 ft | 348 kts | 318° |
| 2026-05-05 13:11 | 39.00303 | 24.40409 | 23221 ft | 348 kts | 318° |
| 2026-05-05 13:11 | 39.07256 | 24.31712 | 23226 ft | 349 kts | 318° |
| 2026-05-05 13:11 | 39.14201 | 24.22999 | 23229 ft | 349 kts | 318° |
| 2026-05-05 13:11 | 39.18819 | 24.17192 | 23227 ft | 349 kts | 318° |
| 2026-05-05 13:12 | 39.25764 | 24.08436 | 23236 ft | 349 kts | 318° |
| 2026-05-05 13:12 | 39.32710 | 23.99654 | 23239 ft | 349 kts | 318° |
| 2026-05-05 13:12 | 39.39645 | 23.90859 | 23229 ft | 349 kts | 318° |
| 2026-05-05 13:12 | 39.46568 | 23.82055 | 23219 ft | 350 kts | 317° |
| 2026-05-05 13:13 | 39.53500 | 23.73212 | 23214 ft | 350 kts | 317° |
| 2026-05-05 13:13 | 39.60450 | 23.64321 | 23208 ft | 350 kts | 317° |
| 2026-05-05 13:13 | 39.67383 | 23.55423 | 23210 ft | 351 kts | 317° |
| 2026-05-05 13:13 | 39.74304 | 23.46517 | 23199 ft | 351 kts | 317° |
| 2026-05-05 13:14 | 39.81234 | 23.37570 | 23188 ft | 351 kts | 317° |
| 2026-05-05 13:14 | 39.88179 | 23.28578 | 23184 ft | 351 kts | 317° |
| 2026-05-05 13:14 | 39.95010 | 23.19706 | 23191 ft | 352 kts | 317° |
| 2026-05-05 13:14 | 40.02023 | 23.10571 | 23174 ft | 352 kts | 317° |
| 2026-05-05 13:15 | 40.08867 | 23.01628 | 23169 ft | 353 kts | 317° |
| 2026-05-05 13:15 | 40.15802 | 22.92540 | 23163 ft | 353 kts | 317° |
| 2026-05-05 13:15 | 40.22735 | 22.83424 | 23163 ft | 354 kts | 316° |
| 2026-05-05 13:15 | 40.29672 | 22.74277 | 23151 ft | 355 kts | 316° |
| 2026-05-05 13:16 | 40.36626 | 22.65078 | 23156 ft | 355 kts | 316° |
| 2026-05-05 13:16 | 40.43577 | 22.55856 | 23174 ft | 356 kts | 316° |
| 2026-05-05 13:16 | 40.50542 | 22.46584 | 23195 ft | 356 kts | 316° |
| 2026-05-05 13:16 | 40.57506 | 22.37285 | 23230 ft | 357 kts | 316° |
| 2026-05-05 13:17 | 40.64453 | 22.27979 | 23241 ft | 357 kts | 316° |
| 2026-05-05 13:17 | 40.71415 | 22.18627 | 23263 ft | 358 kts | 316° |
| 2026-05-05 13:17 | 40.78382 | 22.09234 | 23277 ft | 358 kts | 315° |
| 2026-05-05 13:17 | 40.85355 | 21.99805 | 23295 ft | 359 kts | 315° |
| 2026-05-05 13:18 | 40.92323 | 21.90351 | 23356 ft | 359 kts | 315° |
| 2026-05-05 13:18 | 40.99293 | 21.80862 | 23314 ft | 360 kts | 315° |
| 2026-05-05 13:18 | 41.06188 | 21.71451 | 23383 ft | 360 kts | 315° |
| 2026-05-05 13:18 | 41.13157 | 21.61902 | 23412 ft | 360 kts | 315° |
| 2026-05-05 13:19 | 41.20131 | 21.52317 | 23425 ft | 360 kts | 315° |
| 2026-05-05 13:19 | 41.27114 | 21.42689 | 23427 ft | 361 kts | 315° |
| 2026-05-05 13:19 | 41.34082 | 21.33051 | 23422 ft | 362 kts | 315° |
| 2026-05-05 13:19 | 41.41064 | 21.23361 | 23443 ft | 363 kts | 314° |
| 2026-05-05 13:20 | 41.48066 | 21.13609 | 23492 ft | 364 kts | 314° |
| 2026-05-05 13:20 | 41.55075 | 21.03817 | 23520 ft | 364 kts | 314° |
| 2026-05-05 13:20 | 41.62076 | 20.94002 | 23548 ft | 365 kts | 314° |
| 2026-05-05 13:20 | 41.68993 | 20.84271 | 23590 ft | 365 kts | 314° |
| 2026-05-05 13:21 | 41.75981 | 20.74412 | 23600 ft | 365 kts | 314° |
| 2026-05-05 13:21 | 41.82971 | 20.64512 | 23699 ft | 366 kts | 314° |
| 2026-05-05 13:21 | 41.89963 | 20.54575 | 23752 ft | 366 kts | 313° |
| 2026-05-05 13:21 | 41.96953 | 20.44608 | 23803 ft | 366 kts | 313° |
| 2026-05-05 13:22 | 42.03935 | 20.34619 | 23828 ft | 366 kts | 313° |
| 2026-05-05 13:22 | 42.10899 | 20.24621 | 23882 ft | 366 kts | 313° |
| 2026-05-05 13:22 | 42.17864 | 20.14585 | 23896 ft | 367 kts | 313° |
| 2026-05-05 13:22 | 42.24873 | 20.04456 | 23900 ft | 367 kts | 313° |
| 2026-05-05 13:23 | 42.31828 | 19.94367 | 23902 ft | 367 kts | 312° |
| 2026-05-05 13:23 | 42.38794 | 19.84221 | 23934 ft | 368 kts | 313° |
| 2026-05-05 13:23 | 42.45661 | 19.74194 | 23956 ft | 368 kts | 312° |
| 2026-05-05 13:23 | 42.52717 | 19.63848 | 24017 ft | 368 kts | 312° |
| 2026-05-05 13:24 | 42.59572 | 19.53762 | 24056 ft | 369 kts | 312° |
| 2026-05-05 13:24 | 42.66534 | 19.43481 | 24087 ft | 369 kts | 312° |
| 2026-05-05 13:24 | 42.73472 | 19.33203 | 24131 ft | 369 kts | 312° |
| 2026-05-05 13:24 | 42.80413 | 19.22886 | 24112 ft | 369 kts | 312° |
| 2026-05-05 13:25 | 42.87345 | 19.12540 | 24173 ft | 369 kts | 312° |
| 2026-05-05 13:25 | 42.94248 | 19.02205 | 24212 ft | 369 kts | 311° |
| 2026-05-05 13:25 | 43.01150 | 18.91827 | 24230 ft | 369 kts | 311° |
| 2026-05-05 13:25 | 43.08029 | 18.81453 | 24241 ft | 368 kts | 311° |
| 2026-05-05 13:26 | 43.14883 | 18.71076 | 24236 ft | 368 kts | 311° |
| 2026-05-05 13:26 | 43.21744 | 18.60648 | 24287 ft | 368 kts | 311° |
| 2026-05-05 13:26 | 43.28578 | 18.50232 | 24307 ft | 368 kts | 311° |
| 2026-05-05 13:26 | 43.35428 | 18.39747 | 24340 ft | 368 kts | 311° |
| 2026-05-05 13:27 | 43.42225 | 18.29307 | 24655 ft | 358 kts | 310° |
| 2026-05-05 13:27 | 43.48593 | 18.19502 | 25664 ft | 333 kts | 310° |
| 2026-05-05 13:27 | 43.54860 | 18.09794 | 25665 ft | 342 kts | 309° |
| 2026-05-05 13:27 | 43.61118 | 18.00082 | 25813 ft | 343 kts | 309° |
| 2026-05-05 13:28 | 43.67454 | 17.90215 | 25933 ft | 345 kts | 309° |
| 2026-05-05 13:28 | 43.73836 | 17.80240 | 26035 ft | 347 kts | 309° |
| 2026-05-05 13:28 | 43.80246 | 17.70187 | 26171 ft | 348 kts | 309° |
| 2026-05-05 13:28 | 43.86661 | 17.60096 | 26279 ft | 349 kts | 309° |
| 2026-05-05 13:29 | 43.93094 | 17.49935 | 26374 ft | 350 kts | 308° |
| 2026-05-05 13:29 | 43.99511 | 17.39763 | 26449 ft | 350 kts | 308° |
| 2026-05-05 13:29 | 44.05936 | 17.29545 | 26515 ft | 351 kts | 308° |
| 2026-05-05 13:29 | 44.12361 | 17.19286 | 26550 ft | 352 kts | 308° |
| 2026-05-05 13:30 | 44.18810 | 17.08956 | 26532 ft | 353 kts | 307° |
| 2026-05-05 13:30 | 44.25260 | 16.98583 | 26542 ft | 354 kts | 307° |
| 2026-05-05 13:30 | 44.31738 | 16.88128 | 26541 ft | 356 kts | 307° |
| 2026-05-05 13:30 | 44.38122 | 16.77788 | 26573 ft | 357 kts | 307° |
| 2026-05-05 13:31 | 44.44614 | 16.67231 | 26593 ft | 358 kts | 307° |
| 2026-05-05 13:31 | 44.51105 | 16.56639 | 26553 ft | 358 kts | 307° |
| 2026-05-05 13:31 | 44.57596 | 16.46010 | 26503 ft | 359 kts | 307° |
| 2026-05-05 13:31 | 44.64090 | 16.35327 | 26552 ft | 360 kts | 306° |
| 2026-05-05 13:32 | 44.70579 | 16.24628 | 26598 ft | 360 kts | 306° |
| 2026-05-05 13:32 | 44.77076 | 16.13857 | 26572 ft | 361 kts | 307° |
| 2026-05-05 13:32 | 44.83578 | 16.03047 | 26546 ft | 361 kts | 306° |
| 2026-05-05 13:32 | 44.90061 | 15.92224 | 26562 ft | 362 kts | 307° |
| 2026-05-05 13:33 | 44.96572 | 15.81312 | 26591 ft | 362 kts | 307° |
| 2026-05-05 13:33 | 45.03074 | 15.70377 | 26645 ft | 363 kts | 307° |
| 2026-05-05 13:33 | 45.09539 | 15.59458 | 26698 ft | 363 kts | 307° |
| 2026-05-05 13:33 | 45.16030 | 15.48451 | 26739 ft | 363 kts | 307° |
| 2026-05-05 13:34 | 45.22496 | 15.37448 | 26747 ft | 363 kts | 306° |
| 2026-05-05 13:34 | 45.28944 | 15.26431 | 26792 ft | 363 kts | 306° |
| 2026-05-05 13:34 | 45.35388 | 15.15377 | 26808 ft | 363 kts | 306° |
| 2026-05-05 13:34 | 45.41738 | 15.04441 | 26844 ft | 363 kts | 306° |
| 2026-05-05 13:35 | 45.48151 | 14.93354 | 26885 ft | 363 kts | 306° |
| 2026-05-05 13:35 | 45.54572 | 14.82210 | 26900 ft | 362 kts | 306° |
| 2026-05-05 13:35 | 45.60957 | 14.71079 | 26918 ft | 362 kts | 306° |
| 2026-05-05 13:35 | 45.67345 | 14.59905 | 26916 ft | 362 kts | 306° |
| 2026-05-05 13:36 | 45.73747 | 14.48654 | 27063 ft | 370 kts | 306° |
| 2026-05-05 13:36 | 45.80401 | 14.36911 | 28116 ft | 387 kts | 306° |
| 2026-05-05 13:36 | 45.87285 | 14.24724 | 29280 ft | 401 kts | 306° |
| 2026-05-05 13:36 | 45.94394 | 14.12076 | 30282 ft | 412 kts | 306° |
| 2026-05-05 13:37 | 46.01650 | 13.99111 | 31170 ft | 420 kts | 306° |
| 2026-05-05 13:37 | 46.09019 | 13.85881 | 32181 ft | 426 kts | 305° |
| 2026-05-05 13:37 | 46.16397 | 13.72561 | 33107 ft | 426 kts | 305° |
| 2026-05-05 13:37 | 46.23776 | 13.59194 | 34191 ft | 422 kts | 305° |
| 2026-05-05 13:38 | 46.30956 | 13.46109 | 34774 ft | 422 kts | 305° |
| 2026-05-05 13:38 | 46.38226 | 13.32803 | 35448 ft | 421 kts | 305° |
| 2026-05-05 13:38 | 46.45508 | 13.19412 | 35997 ft | 424 kts | 305° |
| 2026-05-05 13:38 | 46.52812 | 13.05911 | 35984 ft | 423 kts | 304° |
| 2026-05-05 13:39 | 46.67221 | 12.79086 | 35954 ft | 423 kts | 304° |
| 2026-05-05 13:39 | 46.81689 | 12.51888 | 35990 ft | 434 kts | 304° |
| 2026-05-05 13:40 | 46.89221 | 12.37622 | 35989 ft | 448 kts | 304° |
| 2026-05-05 13:40 | 46.96898 | 12.23009 | 35961 ft | 457 kts | 304° |
| 2026-05-05 13:40 | 47.12178 | 11.93693 | 35880 ft | 452 kts | 303° |
| 2026-05-05 13:41 | 47.27310 | 11.64348 | 35851 ft | 452 kts | 303° |
| 2026-05-05 13:41 | 47.42151 | 11.34435 | 35850 ft | 454 kts | 302° |
| 2026-05-05 13:42 | 47.55560 | 11.07187 | 35809 ft | 455 kts | 302° |
| 2026-05-05 13:42 | 47.70447 | 10.76617 | 35836 ft | 459 kts | 301° |
| 2026-05-05 13:43 | 47.85392 | 10.45580 | 35841 ft | 462 kts | 301° |
| 2026-05-05 13:43 | 48.00259 | 10.14350 | 35857 ft | 465 kts | 301° |
| 2026-05-05 13:44 | 48.15210 | 9.82579 | 35859 ft | 468 kts | 301° |
| 2026-05-05 13:44 | 48.30149 | 9.50461 | 35836 ft | 470 kts | 301° |
| 2026-05-05 13:45 | 48.45066 | 9.18003 | 35847 ft | 472 kts | 301° |
| 2026-05-05 13:45 | 48.59951 | 8.85222 | 35844 ft | 473 kts | 300° |
| 2026-05-05 13:46 | 48.74727 | 8.52282 | 35842 ft | 474 kts | 300° |
| 2026-05-05 13:46 | 48.89483 | 8.18981 | 35853 ft | 475 kts | 300° |
| 2026-05-05 13:47 | 49.04166 | 7.85429 | 35846 ft | 476 kts | 300° |
| 2026-05-05 13:47 | 49.18781 | 7.51610 | 35840 ft | 478 kts | 300° |
| 2026-05-05 13:48 | 49.33241 | 7.17721 | 35854 ft | 479 kts | 300° |
| 2026-05-05 13:48 | 49.47754 | 6.83270 | 35842 ft | 480 kts | 299° |
| 2026-05-05 13:49 | 49.62135 | 6.48686 | 35848 ft | 480 kts | 299° |
| 2026-05-05 13:49 | 49.66512 | 6.38225 | 35722 ft | 482 kts | 309° |
| 2026-05-05 13:49 | 49.68919 | 6.34882 | 35227 ft | 484 kts | 317° |
| 2026-05-05 13:50 | 49.71191 | 6.31191 | 35013 ft | 478 kts | 300° |
| 2026-05-05 13:50 | 49.72828 | 6.26776 | 35171 ft | 472 kts | 291° |
| 2026-05-05 13:50 | 49.74201 | 6.22175 | 35411 ft | 469 kts | 290° |
| 2026-05-05 13:50 | 49.75565 | 6.17605 | 35651 ft | 467 kts | 292° |
| 2026-05-05 13:51 | 49.77024 | 6.13107 | 35846 ft | 468 kts | 294° |
| 2026-05-05 13:51 | 49.78597 | 6.08682 | 35851 ft | 472 kts | 296° |
| 2026-05-05 13:51 | 49.85545 | 5.91303 | 35840 ft | 483 kts | 299° |
| 2026-05-05 13:52 | 49.99521 | 5.56598 | 35838 ft | 474 kts | 298° |
| 2026-05-05 13:52 | 50.13389 | 5.21595 | 35846 ft | 474 kts | 298° |
| 2026-05-05 13:53 | 50.27115 | 4.86489 | 35865 ft | 473 kts | 298° |
| 2026-05-05 13:53 | 50.40723 | 4.51208 | 35884 ft | 472 kts | 298° |
| 2026-05-05 13:54 | 50.54186 | 4.15825 | 35879 ft | 472 kts | 297° |
| 2026-05-05 13:54 | 50.67541 | 3.80247 | 35869 ft | 471 kts | 297° |
| 2026-05-05 13:55 | 50.71454 | 3.69725 | 35908 ft | 470 kts | 297° |
| 2026-05-05 13:55 | 50.74735 | 3.60874 | 35574 ft | 469 kts | 297° |
| 2026-05-05 13:56 | 50.76382 | 3.56416 | 34976 ft | 470 kts | 297° |
| 2026-05-05 13:56 | 50.78032 | 3.51943 | 34384 ft | 472 kts | 297° |
| 2026-05-05 13:56 | 50.79687 | 3.47449 | 33776 ft | 473 kts | 297° |
| 2026-05-05 13:56 | 50.81342 | 3.42946 | 33093 ft | 474 kts | 297° |
| 2026-05-05 13:57 | 50.82997 | 3.38434 | 32424 ft | 476 kts | 297° |
| 2026-05-05 13:57 | 50.84657 | 3.33901 | 31774 ft | 477 kts | 297° |
| 2026-05-05 13:57 | 50.86323 | 3.29343 | 31137 ft | 478 kts | 297° |
| 2026-05-05 13:57 | 50.87989 | 3.24780 | 30517 ft | 479 kts | 297° |
| 2026-05-05 13:58 | 50.89660 | 3.20196 | 29907 ft | 480 kts | 298° |
| 2026-05-05 13:58 | 50.91328 | 3.15613 | 29194 ft | 478 kts | 298° |
| 2026-05-05 13:58 | 50.92981 | 3.11063 | 28506 ft | 475 kts | 298° |
| 2026-05-05 13:58 | 50.94072 | 3.08058 | 28058 ft | 473 kts | 298° |
| 2026-05-05 13:59 | 50.97850 | 2.97619 | 26536 ft | 466 kts | 298° |
| 2026-05-05 13:59 | 50.99452 | 2.93175 | 25907 ft | 463 kts | 298° |
| 2026-05-05 14:00 | 51.02625 | 2.84351 | 24686 ft | 457 kts | 298° |
| 2026-05-05 14:00 | 51.03682 | 2.81403 | 24283 ft | 454 kts | 298° |
| 2026-05-05 14:00 | 51.05219 | 2.77111 | 23708 ft | 451 kts | 298° |
| 2026-05-05 14:00 | 51.06536 | 2.73429 | 23160 ft | 449 kts | 298° |
| 2026-05-05 14:01 | 51.08047 | 2.69207 | 22489 ft | 445 kts | 298° |
| 2026-05-05 14:01 | 51.09439 | 2.64833 | 21813 ft | 440 kts | 287° |
| 2026-05-05 14:01 | 51.10038 | 2.60107 | 21175 ft | 433 kts | 274° |
| 2026-05-05 14:01 | 51.10260 | 2.55360 | 20543 ft | 429 kts | 272° |
| 2026-05-05 14:02 | 51.10447 | 2.50618 | 19920 ft | 426 kts | 272° |
| 2026-05-05 14:02 | 51.10654 | 2.45941 | 19309 ft | 422 kts | 273° |
| 2026-05-05 14:02 | 51.10880 | 2.41305 | 18714 ft | 419 kts | 273° |
| 2026-05-05 14:02 | 51.11118 | 2.36686 | 18120 ft | 416 kts | 274° |
| 2026-05-05 14:03 | 51.11358 | 2.32176 | 17458 ft | 413 kts | 274° |
| 2026-05-05 14:03 | 51.11605 | 2.27582 | 16790 ft | 409 kts | 274° |
| 2026-05-05 14:03 | 51.11845 | 2.23143 | 16150 ft | 406 kts | 274° |
| 2026-05-05 14:03 | 51.12085 | 2.18684 | 15601 ft | 401 kts | 275° |
| 2026-05-05 14:04 | 51.12322 | 2.14283 | 15088 ft | 395 kts | 275° |
| 2026-05-05 14:04 | 51.12554 | 2.09943 | 14611 ft | 390 kts | 275° |
| 2026-05-05 14:04 | 51.12780 | 2.05670 | 14125 ft | 384 kts | 275° |
| 2026-05-05 14:04 | 51.13003 | 2.01451 | 13626 ft | 379 kts | 275° |
| 2026-05-05 14:05 | 51.13222 | 1.97292 | 13098 ft | 375 kts | 275° |
| 2026-05-05 14:05 | 51.13436 | 1.93182 | 12573 ft | 370 kts | 275° |
| 2026-05-05 14:05 | 51.13647 | 1.89116 | 12059 ft | 365 kts | 275° |
| 2026-05-05 14:05 | 51.13854 | 1.85113 | 11555 ft | 361 kts | 275° |
| 2026-05-05 14:06 | 51.14057 | 1.81147 | 11054 ft | 357 kts | 275° |
| 2026-05-05 14:06 | 51.14255 | 1.77235 | 10563 ft | 352 kts | 275° |
| 2026-05-05 14:06 | 51.14450 | 1.73369 | 10085 ft | 348 kts | 275° |
| 2026-05-05 14:06 | 51.14642 | 1.69555 | 9653 ft | 341 kts | 275° |
| 2026-05-05 14:07 | 51.14826 | 1.65852 | 9391 ft | 330 kts | 275° |
| 2026-05-05 14:07 | 51.15000 | 1.62329 | 9196 ft | 317 kts | 275° |
| 2026-05-05 14:07 | 51.15168 | 1.58897 | 9021 ft | 305 kts | 275° |
| 2026-05-05 14:07 | 51.15330 | 1.55594 | 8860 ft | 293 kts | 275° |
| 2026-05-05 14:08 | 51.15484 | 1.52411 | 8608 ft | 286 kts | 276° |
| 2026-05-05 14:08 | 51.15760 | 1.49295 | 8197 ft | 283 kts | 286° |
| 2026-05-05 14:08 | 51.16315 | 1.46306 | 7813 ft | 280 kts | 289° |
| 2026-05-05 14:08 | 51.16939 | 1.43374 | 7474 ft | 277 kts | 291° |
| 2026-05-05 14:09 | 51.17584 | 1.40482 | 7275 ft | 276 kts | 291° |
| 2026-05-05 14:09 | 51.18239 | 1.37599 | 7079 ft | 276 kts | 291° |
| 2026-05-05 14:09 | 51.18897 | 1.34726 | 6883 ft | 275 kts | 291° |
| 2026-05-05 14:09 | 51.19549 | 1.31894 | 6686 ft | 275 kts | 292° |
| 2026-05-05 14:10 | 51.20205 | 1.29041 | 6489 ft | 274 kts | 292° |
| 2026-05-05 14:10 | 51.20861 | 1.26191 | 6280 ft | 273 kts | 292° |
| 2026-05-05 14:10 | 51.21513 | 1.23355 | 6082 ft | 272 kts | 292° |
| 2026-05-05 14:10 | 51.22163 | 1.20525 | 5876 ft | 272 kts | 292° |
| 2026-05-05 14:11 | 51.22814 | 1.17690 | 5667 ft | 272 kts | 293° |
| 2026-05-05 14:11 | 51.23463 | 1.14858 | 5455 ft | 272 kts | 292° |
| 2026-05-05 14:11 | 51.24112 | 1.12025 | 5255 ft | 272 kts | 293° |
| 2026-05-05 14:11 | 51.24762 | 1.09189 | 5049 ft | 272 kts | 292° |
| 2026-05-05 14:12 | 51.25411 | 1.06347 | 4854 ft | 272 kts | 293° |
| 2026-05-05 14:12 | 51.26060 | 1.03503 | 4645 ft | 272 kts | 293° |
| 2026-05-05 14:12 | 51.26707 | 1.00662 | 4440 ft | 272 kts | 293° |
| 2026-05-05 14:12 | 51.27351 | 0.97834 | 4229 ft | 271 kts | 292° |
| 2026-05-05 14:13 | 51.27985 | 0.95039 | 4024 ft | 270 kts | 293° |
| 2026-05-05 14:13 | 51.28626 | 0.92215 | 3828 ft | 270 kts | 293° |
| 2026-05-05 14:13 | 51.29265 | 0.89394 | 3626 ft | 269 kts | 292° |
| 2026-05-05 14:13 | 51.29899 | 0.86594 | 3415 ft | 268 kts | 293° |
| 2026-05-05 14:14 | 51.30535 | 0.83778 | 3212 ft | 267 kts | 293° |
| 2026-05-05 14:14 | 51.31163 | 0.80997 | 3007 ft | 267 kts | 293° |
| 2026-05-05 14:14 | 51.31791 | 0.78212 | 2810 ft | 267 kts | 293° |
| 2026-05-05 14:14 | 51.32420 | 0.75419 | 2593 ft | 266 kts | 292° |
| 2026-05-05 14:15 | 51.33044 | 0.72643 | 2388 ft | 265 kts | 293° |
| 2026-05-05 14:15 | 51.33667 | 0.69866 | 2259 ft | 264 kts | 292° |
| 2026-05-05 14:15 | 51.34286 | 0.67107 | 2097 ft | 263 kts | 292° |
| 2026-05-05 14:15 | 51.34901 | 0.64361 | 2077 ft | 262 kts | 293° |
| 2026-05-05 14:16 | 51.35519 | 0.61606 | 2085 ft | 264 kts | 292° |
| 2026-05-05 14:16 | 51.36128 | 0.58881 | 2087 ft | 263 kts | 291° |
| 2026-05-05 14:16 | 51.36742 | 0.56123 | 2089 ft | 264 kts | 292° |
| 2026-05-05 14:16 | 51.37357 | 0.53360 | 2090 ft | 263 kts | 292° |
| 2026-05-05 14:17 | 51.37972 | 0.50595 | 2081 ft | 263 kts | 292° |
| 2026-05-05 14:17 | 51.38586 | 0.47833 | 2085 ft | 263 kts | 292° |
| 2026-05-05 14:17 | 51.39199 | 0.45066 | 2077 ft | 264 kts | 292° |
| 2026-05-05 14:17 | 51.39815 | 0.42283 | 2082 ft | 264 kts | 292° |
| 2026-05-05 14:18 | 51.40426 | 0.39521 | 2069 ft | 264 kts | 292° |
| 2026-05-05 14:18 | 51.41040 | 0.36752 | 1995 ft | 266 kts | 292° |
| 2026-05-05 14:18 | 51.41658 | 0.33958 | 1993 ft | 265 kts | 292° |
| 2026-05-05 14:18 | 51.42268 | 0.31186 | 1995 ft | 264 kts | 291° |
| 2026-05-05 14:19 | 51.42882 | 0.28397 | 1988 ft | 262 kts | 291° |
| 2026-05-05 14:19 | 51.43467 | 0.25721 | 1990 ft | 247 kts | 291° |
| 2026-05-05 14:19 | 51.44020 | 0.23188 | 2007 ft | 233 kts | 291° |
| 2026-05-05 14:19 | 51.44538 | 0.20808 | 2008 ft | 221 kts | 292° |
| 2026-05-05 14:20 | 51.45033 | 0.18556 | 1997 ft | 214 kts | 292° |
| 2026-05-05 14:20 | 51.45525 | 0.16314 | 1994 ft | 212 kts | 292° |
| 2026-05-05 14:20 | 51.45996 | 0.14157 | 2001 ft | 197 kts | 292° |
| 2026-05-05 14:20 | 51.46439 | 0.12125 | 2006 ft | 192 kts | 291° |
| 2026-05-05 14:21 | 51.46876 | 0.10128 | 2001 ft | 191 kts | 292° |
| 2026-05-05 14:21 | 51.47317 | 0.08109 | 1994 ft | 190 kts | 292° |
| 2026-05-05 14:21 | 51.47755 | 0.06102 | 1997 ft | 190 kts | 292° |
| 2026-05-05 14:21 | 51.48192 | 0.04093 | 1998 ft | 191 kts | 292° |
| 2026-05-05 14:22 | 51.48628 | 0.02088 | 1997 ft | 190 kts | 292° |
| 2026-05-05 14:22 | 51.49038 | 0.00188 | 2005 ft | 175 kts | 293° |
| 2026-05-05 14:22 | 51.49429 | -0.01623 | 2003 ft | 170 kts | 292° |
| 2026-05-05 14:22 | 51.49817 | -0.03414 | 2000 ft | 169 kts | 292° |
| 2026-05-05 14:23 | 51.50322 | -0.05103 | 1993 ft | 167 kts | 313° |
| 2026-05-05 14:23 | 51.51273 | -0.05997 | 1998 ft | 158 kts | 356° |
| 2026-05-05 14:23 | 51.52315 | -0.06030 | 1976 ft | 143 kts | 360° |
| 2026-05-05 14:23 | 51.53233 | -0.06506 | 1979 ft | 143 kts | 326° |
| 2026-05-05 14:24 | 51.53738 | -0.07885 | 1991 ft | 151 kts | 280° |
| 2026-05-05 14:24 | 51.53470 | -0.09497 | 1989 ft | 155 kts | 232° |
| 2026-05-05 14:24 | 51.52591 | -0.10340 | 2000 ft | 152 kts | 185° |
| 2026-05-05 14:24 | 51.51626 | -0.09957 | 1975 ft | 143 kts | 130° |
| 2026-05-05 14:25 | 51.51159 | -0.08576 | 2025 ft | 140 kts | 106° |
| 2026-05-05 14:25 | 51.50940 | -0.07093 | 2008 ft | 138 kts | 91° |
| 2026-05-05 14:25 | 51.50893 | -0.05560 | 2005 ft | 137 kts | 91° |
| 2026-05-05 14:25 | 51.50838 | -0.04438 | 2001 ft | 138 kts | 89° |
| 2026-05-05 14:26 | 51.50827 | -0.04101 | 1994 ft | 137 kts | 89° |
| 2026-05-05 14:26 | 51.50782 | -0.02558 | 1729 ft | 139 kts | 90° |
| 2026-05-05 14:26 | 51.50728 | -0.00996 | 1311 ft | 140 kts | 89° |
| 2026-05-05 14:27 | 51.50664 | 0.00549 | 962 ft | 137 kts | 90° |
| 2026-05-05 14:27 | 51.50618 | 0.02070 | 577 ft | 135 kts | 90° |
| 2026-05-05 14:27 | 51.50576 | 0.03574 | 236 ft | 134 kts | 92° |
| 2026-05-05 14:27 | 51.50536 | 0.05008 | 35 ft | 114 kts | 93° |
| 2026-05-05 14:28 | 51.50512 | 0.05783 | 26 ft | 26 kts | 94° |
| 2026-05-05 14:28 | 51.50500 | 0.06067 | 27 ft | 26 kts | 92° |
| 2026-05-05 14:28 | 51.50488 | 0.06300 | 30 ft | 8 kts | 128° |
| 2026-05-05 14:28 | 51.50450 | 0.06343 | 33 ft | 5 kts | 154° |
| 2026-05-05 14:29 | 51.50437 | 0.06332 | 32 ft | 3 kts | 219° |
| 2026-05-05 14:29 | 51.50451 | 0.06284 | 33 ft | 16 kts | 308° |
| 2026-05-05 14:29 | 51.50509 | 0.06019 | 27 ft | 34 kts | 273° |
| 2026-05-05 14:29 | 51.50522 | 0.05569 | 27 ft | 44 kts | 272° |
| 2026-05-05 14:30 | 51.50535 | 0.05136 | 33 ft | 36 kts | 272° |
| 2026-05-05 14:30 | 51.50510 | 0.04923 | 34 ft | 14 kts | 204° |
| 2026-05-05 14:30 | 51.50468 | 0.04818 | 34 ft | 8 kts | 266° |
| 2026-05-05 14:30 | 51.50448 | 0.04785 | 32 ft | 0 kts | 188° |
| 2026-05-05 14:31 | 51.50447 | 0.04786 | 32 ft | 0 kts | 180° |
| 2026-05-05 14:31 | 51.48337 | 0.03428 | 2004 ft | 191 kts | 292° |
| 2026-05-05 14:31 | 51.49194 | -0.00533 | 2005 ft | 172 kts | 292° |